sensor_id;sensor_type;location;lat;lon;timestamp;P1;durP1;ratioP1;P2;durP2;ratioP2
27746;SDS011;15138;51.012;4.692;2024-01-25T00:02:17;48.20;;;7.20;;
27746;SDS011;15138;51.012;4.692;2024-01-25T00:04:45;48.35;;;6.50;;
27746;SDS011;15138;51.012;4.692;2024-01-25T00:07:14;53.80;;;7.38;;
27746;SDS011;15138;51.012;4.692;2024-01-25T00:09:42;51.08;;;6.55;;
27746;SDS011;15138;51.012;4.692;2024-01-25T00:12:11;51.03;;;6.97;;
27746;SDS011;15138;51.012;4.692;2024-01-25T00:14:40;65.95;;;7.97;;
27746;SDS011;15138;51.012;4.692;2024-01-25T00:17:08;53.15;;;6.10;;
27746;SDS011;15138;51.012;4.692;2024-01-25T00:19:36;45.08;;;6.22;;
27746;SDS011;15138;51.012;4.692;2024-01-25T00:22:04;47.25;;;6.35;;
27746;SDS011;15138;51.012;4.692;2024-01-25T00:24:33;29.33;;;5.38;;
27746;SDS011;15138;51.012;4.692;2024-01-25T00:27:01;32.88;;;4.97;;
27746;SDS011;15138;51.012;4.692;2024-01-25T00:29:31;56.05;;;6.78;;
27746;SDS011;15138;51.012;4.692;2024-01-25T00:32:02;43.25;;;5.93;;
27746;SDS011;15138;51.012;4.692;2024-01-25T00:34:30;50.55;;;6.07;;
27746;SDS011;15138;51.012;4.692;2024-01-25T00:36:59;33.17;;;4.50;;
27746;SDS011;15138;51.012;4.692;2024-01-25T00:39:28;51.33;;;6.07;;
27746;SDS011;15138;51.012;4.692;2024-01-25T00:41:58;41.13;;;5.75;;
27746;SDS011;15138;51.012;4.692;2024-01-25T00:44:33;49.87;;;6.60;;
27746;SDS011;15138;51.012;4.692;2024-01-25T00:47:02;43.55;;;6.05;;
27746;SDS011;15138;51.012;4.692;2024-01-25T00:49:30;51.60;;;6.60;;
27746;SDS011;15138;51.012;4.692;2024-01-25T00:52:00;42.67;;;5.55;;
27746;SDS011;15138;51.012;4.692;2024-01-25T00:54:30;50.45;;;6.55;;
27746;SDS011;15138;51.012;4.692;2024-01-25T00:56:59;47.35;;;7.00;;
27746;SDS011;15138;51.012;4.692;2024-01-25T00:59:28;36.92;;;5.18;;
27746;SDS011;15138;51.012;4.692;2024-01-25T01:01:58;45.83;;;5.47;;
27746;SDS011;15138;51.012;4.692;2024-01-25T01:04:33;39.92;;;5.63;;
27746;SDS011;15138;51.012;4.692;2024-01-25T01:07:13;44.10;;;7.15;;
27746;SDS011;15138;51.012;4.692;2024-01-25T01:09:42;46.38;;;6.25;;
27746;SDS011;15138;51.012;4.692;2024-01-25T01:12:11;36.50;;;5.53;;
27746;SDS011;15138;51.012;4.692;2024-01-25T01:14:40;40.72;;;6.00;;
27746;SDS011;15138;51.012;4.692;2024-01-25T01:17:09;46.13;;;4.80;;
27746;SDS011;15138;51.012;4.692;2024-01-25T01:19:37;39.30;;;6.40;;
27746;SDS011;15138;51.012;4.692;2024-01-25T01:22:06;43.55;;;6.57;;
27746;SDS011;15138;51.012;4.692;2024-01-25T01:24:34;42.90;;;6.38;;
27746;SDS011;15138;51.012;4.692;2024-01-25T01:27:03;41.13;;;5.70;;
27746;SDS011;15138;51.012;4.692;2024-01-25T01:29:31;51.28;;;7.63;;
27746;SDS011;15138;51.012;4.692;2024-01-25T01:31:59;45.50;;;6.05;;
27746;SDS011;15138;51.012;4.692;2024-01-25T01:34:28;39.45;;;6.43;;
27746;SDS011;15138;51.012;4.692;2024-01-25T01:36:57;39.38;;;5.85;;
27746;SDS011;15138;51.012;4.692;2024-01-25T01:39:25;48.45;;;6.65;;
27746;SDS011;15138;51.012;4.692;2024-01-25T01:41:54;40.80;;;6.22;;
27746;SDS011;15138;51.012;4.692;2024-01-25T01:44:22;37.85;;;5.60;;
27746;SDS011;15138;51.012;4.692;2024-01-25T01:46:50;42.30;;;7.03;;
27746;SDS011;15138;51.012;4.692;2024-01-25T01:49:18;39.53;;;5.35;;
27746;SDS011;15138;51.012;4.692;2024-01-25T01:51:48;47.97;;;6.00;;
27746;SDS011;15138;51.012;4.692;2024-01-25T01:54:17;50.35;;;6.82;;
27746;SDS011;15138;51.012;4.692;2024-01-25T01:56:45;35.80;;;5.05;;
27746;SDS011;15138;51.012;4.692;2024-01-25T01:59:14;41.60;;;5.30;;
27746;SDS011;15138;51.012;4.692;2024-01-25T02:01:43;48.17;;;6.70;;
27746;SDS011;15138;51.012;4.692;2024-01-25T02:04:12;42.28;;;6.65;;
27746;SDS011;15138;51.012;4.692;2024-01-25T02:06:40;45.50;;;6.25;;
27746;SDS011;15138;51.012;4.692;2024-01-25T02:09:12;42.88;;;6.15;;
27746;SDS011;15138;51.012;4.692;2024-01-25T02:11:40;39.85;;;6.60;;
27746;SDS011;15138;51.012;4.692;2024-01-25T02:14:08;45.60;;;6.00;;
27746;SDS011;15138;51.012;4.692;2024-01-25T02:16:38;39.03;;;5.40;;
27746;SDS011;15138;51.012;4.692;2024-01-25T02:19:06;30.33;;;5.13;;
27746;SDS011;15138;51.012;4.692;2024-01-25T02:21:35;34.05;;;5.40;;
27746;SDS011;15138;51.012;4.692;2024-01-25T02:24:05;37.92;;;5.10;;
27746;SDS011;15138;51.012;4.692;2024-01-25T02:26:33;32.40;;;4.78;;
27746;SDS011;15138;51.012;4.692;2024-01-25T02:29:03;29.85;;;4.60;;
27746;SDS011;15138;51.012;4.692;2024-01-25T02:31:32;29.15;;;4.45;;
27746;SDS011;15138;51.012;4.692;2024-01-25T02:34:00;40.75;;;5.18;;
27746;SDS011;15138;51.012;4.692;2024-01-25T02:36:28;41.25;;;5.05;;
27746;SDS011;15138;51.012;4.692;2024-01-25T02:38:56;47.13;;;6.47;;
27746;SDS011;15138;51.012;4.692;2024-01-25T02:41:26;37.85;;;5.53;;
27746;SDS011;15138;51.012;4.692;2024-01-25T02:43:56;35.72;;;5.25;;
27746;SDS011;15138;51.012;4.692;2024-01-25T02:46:25;28.67;;;4.15;;
27746;SDS011;15138;51.012;4.692;2024-01-25T02:48:53;33.10;;;4.57;;
27746;SDS011;15138;51.012;4.692;2024-01-25T02:51:21;33.95;;;5.25;;
27746;SDS011;15138;51.012;4.692;2024-01-25T02:53:50;38.15;;;5.15;;
27746;SDS011;15138;51.012;4.692;2024-01-25T02:56:18;37.03;;;6.13;;
27746;SDS011;15138;51.012;4.692;2024-01-25T02:58:47;38.55;;;5.75;;
27746;SDS011;15138;51.012;4.692;2024-01-25T03:01:16;25.27;;;4.00;;
27746;SDS011;15138;51.012;4.692;2024-01-25T03:03:44;19.65;;;3.10;;
27746;SDS011;15138;51.012;4.692;2024-01-25T03:06:13;52.40;;;5.75;;
27746;SDS011;15138;51.012;4.692;2024-01-25T03:08:41;31.15;;;5.43;;
27746;SDS011;15138;51.012;4.692;2024-01-25T03:11:09;34.38;;;5.70;;
27746;SDS011;15138;51.012;4.692;2024-01-25T03:13:37;32.17;;;4.53;;
27746;SDS011;15138;51.012;4.692;2024-01-25T03:16:07;39.28;;;5.65;;
27746;SDS011;15138;51.012;4.692;2024-01-25T03:18:35;39.28;;;5.55;;
27746;SDS011;15138;51.012;4.692;2024-01-25T03:21:04;35.05;;;5.22;;
27746;SDS011;15138;51.012;4.692;2024-01-25T03:23:32;17.80;;;3.10;;
27746;SDS011;15138;51.012;4.692;2024-01-25T03:26:01;30.88;;;5.05;;
27746;SDS011;15138;51.012;4.692;2024-01-25T03:28:30;34.53;;;5.57;;
27746;SDS011;15138;51.012;4.692;2024-01-25T03:30:58;46.22;;;6.32;;
27746;SDS011;15138;51.012;4.692;2024-01-25T03:33:28;26.50;;;4.05;;
27746;SDS011;15138;51.012;4.692;2024-01-25T03:36:01;42.45;;;5.20;;
27746;SDS011;15138;51.012;4.692;2024-01-25T03:38:29;29.50;;;5.60;;
27746;SDS011;15138;51.012;4.692;2024-01-25T03:40:58;31.60;;;5.05;;
27746;SDS011;15138;51.012;4.692;2024-01-25T03:43:26;30.50;;;5.32;;
27746;SDS011;15138;51.012;4.692;2024-01-25T03:46:08;32.53;;;4.43;;
27746;SDS011;15138;51.012;4.692;2024-01-25T03:48:37;38.72;;;4.90;;
27746;SDS011;15138;51.012;4.692;2024-01-25T03:51:06;24.75;;;4.57;;
27746;SDS011;15138;51.012;4.692;2024-01-25T03:53:34;23.98;;;3.88;;
27746;SDS011;15138;51.012;4.692;2024-01-25T03:56:02;31.25;;;4.75;;
27746;SDS011;15138;51.012;4.692;2024-01-25T03:58:31;23.08;;;3.95;;
27746;SDS011;15138;51.012;4.692;2024-01-25T04:00:59;20.70;;;4.20;;
27746;SDS011;15138;51.012;4.692;2024-01-25T04:03:27;25.48;;;4.20;;
27746;SDS011;15138;51.012;4.692;2024-01-25T04:05:57;24.33;;;3.42;;
27746;SDS011;15138;51.012;4.692;2024-01-25T04:08:26;21.67;;;3.30;;
27746;SDS011;15138;51.012;4.692;2024-01-25T04:10:54;22.27;;;3.35;;
27746;SDS011;15138;51.012;4.692;2024-01-25T04:13:22;22.55;;;4.35;;
27746;SDS011;15138;51.012;4.692;2024-01-25T04:15:51;16.77;;;3.25;;
27746;SDS011;15138;51.012;4.692;2024-01-25T04:18:19;20.85;;;3.92;;
27746;SDS011;15138;51.012;4.692;2024-01-25T04:20:47;16.55;;;3.60;;
27746;SDS011;15138;51.012;4.692;2024-01-25T04:23:18;23.60;;;3.72;;
27746;SDS011;15138;51.012;4.692;2024-01-25T04:25:47;13.93;;;3.13;;
27746;SDS011;15138;51.012;4.692;2024-01-25T04:28:16;16.13;;;3.25;;
27746;SDS011;15138;51.012;4.692;2024-01-25T04:30:45;14.38;;;2.67;;
27746;SDS011;15138;51.012;4.692;2024-01-25T04:33:13;12.60;;;2.40;;
27746;SDS011;15138;51.012;4.692;2024-01-25T04:35:43;11.93;;;2.92;;
27746;SDS011;15138;51.012;4.692;2024-01-25T04:38:11;16.88;;;2.55;;
27746;SDS011;15138;51.012;4.692;2024-01-25T04:40:41;12.30;;;3.17;;
27746;SDS011;15138;51.012;4.692;2024-01-25T04:43:09;15.10;;;2.88;;
27746;SDS011;15138;51.012;4.692;2024-01-25T04:45:39;14.43;;;2.80;;
27746;SDS011;15138;51.012;4.692;2024-01-25T04:48:07;21.13;;;3.83;;
27746;SDS011;15138;51.012;4.692;2024-01-25T04:50:36;20.55;;;4.05;;
27746;SDS011;15138;51.012;4.692;2024-01-25T04:53:05;29.00;;;4.28;;
27746;SDS011;15138;51.012;4.692;2024-01-25T04:55:34;24.13;;;4.53;;
27746;SDS011;15138;51.012;4.692;2024-01-25T04:58:03;21.98;;;3.50;;
27746;SDS011;15138;51.012;4.692;2024-01-25T05:00:31;24.77;;;4.20;;
27746;SDS011;15138;51.012;4.692;2024-01-25T05:03:00;27.73;;;3.63;;
27746;SDS011;15138;51.012;4.692;2024-01-25T05:05:28;19.27;;;4.07;;
27746;SDS011;15138;51.012;4.692;2024-01-25T05:07:56;25.88;;;3.63;;
27746;SDS011;15138;51.012;4.692;2024-01-25T05:10:25;23.65;;;4.47;;
27746;SDS011;15138;51.012;4.692;2024-01-25T05:12:53;27.38;;;4.90;;
27746;SDS011;15138;51.012;4.692;2024-01-25T05:15:23;17.25;;;3.50;;
27746;SDS011;15138;51.012;4.692;2024-01-25T05:17:51;17.45;;;3.35;;
27746;SDS011;15138;51.012;4.692;2024-01-25T05:20:20;16.83;;;2.80;;
27746;SDS011;15138;51.012;4.692;2024-01-25T05:22:48;20.55;;;3.33;;
27746;SDS011;15138;51.012;4.692;2024-01-25T05:25:16;12.98;;;3.00;;
27746;SDS011;15138;51.012;4.692;2024-01-25T05:27:45;17.13;;;3.25;;
27746;SDS011;15138;51.012;4.692;2024-01-25T05:30:13;18.23;;;3.63;;
27746;SDS011;15138;51.012;4.692;2024-01-25T05:32:43;17.73;;;3.40;;
27746;SDS011;15138;51.012;4.692;2024-01-25T05:35:12;25.75;;;3.67;;
27746;SDS011;15138;51.012;4.692;2024-01-25T05:37:40;19.17;;;3.95;;
27746;SDS011;15138;51.012;4.692;2024-01-25T05:40:09;21.52;;;3.72;;
27746;SDS011;15138;51.012;4.692;2024-01-25T05:42:38;15.25;;;3.03;;
27746;SDS011;15138;51.012;4.692;2024-01-25T05:45:07;15.20;;;3.65;;
27746;SDS011;15138;51.012;4.692;2024-01-25T05:47:35;21.20;;;3.45;;
27746;SDS011;15138;51.012;4.692;2024-01-25T05:50:06;14.73;;;2.65;;
27746;SDS011;15138;51.012;4.692;2024-01-25T05:52:34;22.20;;;3.72;;
27746;SDS011;15138;51.012;4.692;2024-01-25T05:55:04;15.13;;;3.65;;
27746;SDS011;15138;51.012;4.692;2024-01-25T05:57:34;20.65;;;3.22;;
27746;SDS011;15138;51.012;4.692;2024-01-25T06:00:04;13.07;;;2.75;;
27746;SDS011;15138;51.012;4.692;2024-01-25T06:02:33;25.80;;;4.53;;
27746;SDS011;15138;51.012;4.692;2024-01-25T06:05:02;24.42;;;3.80;;
27746;SDS011;15138;51.012;4.692;2024-01-25T06:07:32;14.93;;;2.80;;
27746;SDS011;15138;51.012;4.692;2024-01-25T06:10:01;16.52;;;2.88;;
27746;SDS011;15138;51.012;4.692;2024-01-25T06:12:30;17.67;;;3.35;;
27746;SDS011;15138;51.012;4.692;2024-01-25T06:14:58;21.33;;;3.22;;
27746;SDS011;15138;51.012;4.692;2024-01-25T06:17:27;18.15;;;3.35;;
27746;SDS011;15138;51.012;4.692;2024-01-25T06:19:55;17.13;;;3.08;;
27746;SDS011;15138;51.012;4.692;2024-01-25T06:22:23;15.77;;;3.00;;
27746;SDS011;15138;51.012;4.692;2024-01-25T06:24:53;17.35;;;3.47;;
27746;SDS011;15138;51.012;4.692;2024-01-25T06:27:21;24.42;;;4.03;;
27746;SDS011;15138;51.012;4.692;2024-01-25T06:29:49;15.27;;;3.30;;
27746;SDS011;15138;51.012;4.692;2024-01-25T06:32:17;13.18;;;3.15;;
27746;SDS011;15138;51.012;4.692;2024-01-25T06:34:52;18.85;;;3.63;;
27746;SDS011;15138;51.012;4.692;2024-01-25T06:37:21;28.60;;;4.18;;
27746;SDS011;15138;51.012;4.692;2024-01-25T06:39:49;23.17;;;3.47;;
27746;SDS011;15138;51.012;4.692;2024-01-25T06:42:19;19.10;;;3.38;;
27746;SDS011;15138;51.012;4.692;2024-01-25T06:44:47;12.52;;;2.70;;
27746;SDS011;15138;51.012;4.692;2024-01-25T06:47:15;20.33;;;4.30;;
27746;SDS011;15138;51.012;4.692;2024-01-25T06:49:46;27.27;;;4.45;;
27746;SDS011;15138;51.012;4.692;2024-01-25T06:52:18;22.20;;;3.80;;
27746;SDS011;15138;51.012;4.692;2024-01-25T06:54:47;8.07;;;2.38;;
27746;SDS011;15138;51.012;4.692;2024-01-25T06:57:15;19.23;;;3.67;;
27746;SDS011;15138;51.012;4.692;2024-01-25T06:59:45;12.40;;;3.22;;
27746;SDS011;15138;51.012;4.692;2024-01-25T07:02:14;16.67;;;3.80;;
27746;SDS011;15138;51.012;4.692;2024-01-25T07:04:44;26.10;;;4.53;;
27746;SDS011;15138;51.012;4.692;2024-01-25T07:07:12;18.52;;;3.50;;
27746;SDS011;15138;51.012;4.692;2024-01-25T07:09:41;25.52;;;4.18;;
27746;SDS011;15138;51.012;4.692;2024-01-25T07:12:09;20.85;;;4.10;;
27746;SDS011;15138;51.012;4.692;2024-01-25T07:14:37;16.90;;;2.88;;
27746;SDS011;15138;51.012;4.692;2024-01-25T07:17:07;17.75;;;3.30;;
27746;SDS011;15138;51.012;4.692;2024-01-25T07:19:35;25.92;;;4.30;;
27746;SDS011;15138;51.012;4.692;2024-01-25T07:22:03;20.65;;;3.85;;
27746;SDS011;15138;51.012;4.692;2024-01-25T07:24:31;19.80;;;3.65;;
27746;SDS011;15138;51.012;4.692;2024-01-25T07:27:00;35.58;;;5.10;;
27746;SDS011;15138;51.012;4.692;2024-01-25T07:29:28;37.85;;;5.13;;
27746;SDS011;15138;51.012;4.692;2024-01-25T07:31:56;25.13;;;4.43;;
27746;SDS011;15138;51.012;4.692;2024-01-25T07:34:25;28.52;;;4.30;;
27746;SDS011;15138;51.012;4.692;2024-01-25T07:36:54;16.45;;;3.30;;
27746;SDS011;15138;51.012;4.692;2024-01-25T07:39:22;20.02;;;3.60;;
27746;SDS011;15138;51.012;4.692;2024-01-25T07:41:51;11.15;;;2.67;;
27746;SDS011;15138;51.012;4.692;2024-01-25T07:44:19;29.85;;;4.50;;
27746;SDS011;15138;51.012;4.692;2024-01-25T07:46:47;19.98;;;3.85;;
27746;SDS011;15138;51.012;4.692;2024-01-25T07:49:15;21.83;;;4.60;;
27746;SDS011;15138;51.012;4.692;2024-01-25T07:51:45;15.77;;;4.15;;
27746;SDS011;15138;51.012;4.692;2024-01-25T07:54:14;19.30;;;4.13;;
27746;SDS011;15138;51.012;4.692;2024-01-25T07:56:42;18.27;;;4.38;;
27746;SDS011;15138;51.012;4.692;2024-01-25T07:59:10;13.98;;;3.10;;
27746;SDS011;15138;51.012;4.692;2024-01-25T08:01:38;11.65;;;3.00;;
27746;SDS011;15138;51.012;4.692;2024-01-25T08:04:07;27.63;;;4.22;;
27746;SDS011;15138;51.012;4.692;2024-01-25T08:06:35;24.70;;;4.45;;
27746;SDS011;15138;51.012;4.692;2024-01-25T08:09:05;29.92;;;5.18;;
27746;SDS011;15138;51.012;4.692;2024-01-25T08:11:33;24.55;;;4.70;;
27746;SDS011;15138;51.012;4.692;2024-01-25T08:14:01;20.17;;;4.82;;
27746;SDS011;15138;51.012;4.692;2024-01-25T08:16:30;19.35;;;3.75;;
27746;SDS011;15138;51.012;4.692;2024-01-25T08:18:58;23.55;;;4.78;;
27746;SDS011;15138;51.012;4.692;2024-01-25T08:21:27;26.67;;;4.90;;
27746;SDS011;15138;51.012;4.692;2024-01-25T08:23:55;35.53;;;5.43;;
27746;SDS011;15138;51.012;4.692;2024-01-25T08:26:25;30.95;;;5.63;;
27746;SDS011;15138;51.012;4.692;2024-01-25T08:28:53;27.10;;;4.55;;
27746;SDS011;15138;51.012;4.692;2024-01-25T08:31:21;36.92;;;5.20;;
27746;SDS011;15138;51.012;4.692;2024-01-25T08:33:50;34.78;;;5.53;;
27746;SDS011;15138;51.012;4.692;2024-01-25T08:36:18;46.45;;;6.35;;
27746;SDS011;15138;51.012;4.692;2024-01-25T08:38:46;32.58;;;5.93;;
27746;SDS011;15138;51.012;4.692;2024-01-25T08:41:15;24.25;;;5.00;;
27746;SDS011;15138;51.012;4.692;2024-01-25T08:43:44;44.85;;;7.13;;
27746;SDS011;15138;51.012;4.692;2024-01-25T08:46:13;35.75;;;6.28;;
27746;SDS011;15138;51.012;4.692;2024-01-25T08:48:42;21.48;;;5.00;;
27746;SDS011;15138;51.012;4.692;2024-01-25T08:51:10;36.47;;;6.82;;
27746;SDS011;15138;51.012;4.692;2024-01-25T08:53:39;28.95;;;7.85;;
27746;SDS011;15138;51.012;4.692;2024-01-25T08:56:07;35.58;;;7.53;;
27746;SDS011;15138;51.012;4.692;2024-01-25T08:58:36;26.85;;;7.53;;
27746;SDS011;15138;51.012;4.692;2024-01-25T09:01:05;36.97;;;10.75;;
27746;SDS011;15138;51.012;4.692;2024-01-25T09:03:34;31.98;;;8.02;;
27746;SDS011;15138;51.012;4.692;2024-01-25T09:06:02;29.13;;;8.60;;
27746;SDS011;15138;51.012;4.692;2024-01-25T09:08:33;32.28;;;8.95;;
27746;SDS011;15138;51.012;4.692;2024-01-25T09:11:01;24.02;;;8.77;;
27746;SDS011;15138;51.012;4.692;2024-01-25T09:13:29;27.85;;;9.25;;
27746;SDS011;15138;51.012;4.692;2024-01-25T09:16:11;24.00;;;10.07;;
27746;SDS011;15138;51.012;4.692;2024-01-25T09:18:39;30.25;;;11.30;;
27746;SDS011;15138;51.012;4.692;2024-01-25T09:21:08;22.02;;;8.88;;
27746;SDS011;15138;51.012;4.692;2024-01-25T09:23:36;25.60;;;8.90;;
27746;SDS011;15138;51.012;4.692;2024-01-25T09:26:04;29.35;;;10.43;;
27746;SDS011;15138;51.012;4.692;2024-01-25T09:28:33;31.25;;;11.85;;
27746;SDS011;15138;51.012;4.692;2024-01-25T09:31:01;29.95;;;11.63;;
27746;SDS011;15138;51.012;4.692;2024-01-25T09:33:32;28.50;;;9.85;;
27746;SDS011;15138;51.012;4.692;2024-01-25T09:36:02;23.55;;;8.40;;
27746;SDS011;15138;51.012;4.692;2024-01-25T09:38:30;23.63;;;9.45;;
27746;SDS011;15138;51.012;4.692;2024-01-25T09:40:59;23.17;;;9.27;;
27746;SDS011;15138;51.012;4.692;2024-01-25T09:43:29;27.00;;;10.35;;
27746;SDS011;15138;51.012;4.692;2024-01-25T09:45:58;23.45;;;10.70;;
27746;SDS011;15138;51.012;4.692;2024-01-25T09:48:28;28.50;;;10.40;;
27746;SDS011;15138;51.012;4.692;2024-01-25T09:50:58;24.00;;;10.10;;
27746;SDS011;15138;51.012;4.692;2024-01-25T09:53:27;25.42;;;8.65;;
27746;SDS011;15138;51.012;4.692;2024-01-25T09:56:03;29.33;;;11.77;;
27746;SDS011;15138;51.012;4.692;2024-01-25T09:58:36;27.13;;;9.48;;
27746;SDS011;15138;51.012;4.692;2024-01-25T10:01:07;27.05;;;11.15;;
27746;SDS011;15138;51.012;4.692;2024-01-25T10:03:37;30.02;;;12.15;;
27746;SDS011;15138;51.012;4.692;2024-01-25T10:06:08;35.53;;;13.63;;
27746;SDS011;15138;51.012;4.692;2024-01-25T10:08:38;40.42;;;12.50;;
27746;SDS011;15138;51.012;4.692;2024-01-25T10:11:06;37.45;;;13.63;;
27746;SDS011;15138;51.012;4.692;2024-01-25T10:13:40;39.90;;;15.65;;
27746;SDS011;15138;51.012;4.692;2024-01-25T10:16:10;40.08;;;14.32;;
27746;SDS011;15138;51.012;4.692;2024-01-25T10:18:41;35.72;;;13.10;;
27746;SDS011;15138;51.012;4.692;2024-01-25T10:21:12;35.05;;;13.25;;
27746;SDS011;15138;51.012;4.692;2024-01-25T10:23:43;43.53;;;15.32;;
27746;SDS011;15138;51.012;4.692;2024-01-25T10:26:12;39.25;;;14.15;;
27746;SDS011;15138;51.012;4.692;2024-01-25T10:28:41;46.72;;;15.25;;
27746;SDS011;15138;51.012;4.692;2024-01-25T10:31:09;42.70;;;15.18;;
27746;SDS011;15138;51.012;4.692;2024-01-25T10:33:38;39.50;;;14.20;;
27746;SDS011;15138;51.012;4.692;2024-01-25T10:36:08;49.05;;;15.13;;
27746;SDS011;15138;51.012;4.692;2024-01-25T10:38:39;45.40;;;15.20;;
27746;SDS011;15138;51.012;4.692;2024-01-25T10:41:10;47.78;;;16.00;;
27746;SDS011;15138;51.012;4.692;2024-01-25T10:43:41;56.85;;;18.52;;
27746;SDS011;15138;51.012;4.692;2024-01-25T10:46:09;48.97;;;16.80;;
27746;SDS011;15138;51.012;4.692;2024-01-25T10:48:39;54.05;;;16.52;;
27746;SDS011;15138;51.012;4.692;2024-01-25T10:51:08;62.35;;;17.10;;
27746;SDS011;15138;51.012;4.692;2024-01-25T10:53:40;52.97;;;18.17;;
27746;SDS011;15138;51.012;4.692;2024-01-25T10:56:09;63.33;;;15.70;;
27746;SDS011;15138;51.012;4.692;2024-01-25T10:58:40;67.20;;;16.70;;
27746;SDS011;15138;51.012;4.692;2024-01-25T11:01:09;49.47;;;15.48;;
27746;SDS011;15138;51.012;4.692;2024-01-25T11:03:42;60.38;;;16.88;;
27746;SDS011;15138;51.012;4.692;2024-01-25T11:06:14;59.28;;;16.20;;
27746;SDS011;15138;51.012;4.692;2024-01-25T11:08:49;52.72;;;15.98;;
27746;SDS011;15138;51.012;4.692;2024-01-25T11:11:17;55.05;;;15.20;;
27746;SDS011;15138;51.012;4.692;2024-01-25T11:13:46;50.33;;;14.90;;
27746;SDS011;15138;51.012;4.692;2024-01-25T11:16:18;44.47;;;11.35;;
27746;SDS011;15138;51.012;4.692;2024-01-25T11:18:55;48.97;;;14.43;;
27746;SDS011;15138;51.012;4.692;2024-01-25T11:21:26;41.92;;;12.43;;
27746;SDS011;15138;51.012;4.692;2024-01-25T11:24:02;52.72;;;14.95;;
27746;SDS011;15138;51.012;4.692;2024-01-25T11:26:32;46.58;;;14.15;;
27746;SDS011;15138;51.012;4.692;2024-01-25T11:29:01;40.65;;;11.90;;
27746;SDS011;15138;51.012;4.692;2024-01-25T11:31:29;54.72;;;15.02;;
27746;SDS011;15138;51.012;4.692;2024-01-25T11:33:58;48.28;;;15.43;;
27746;SDS011;15138;51.012;4.692;2024-01-25T11:36:27;52.65;;;15.60;;
27746;SDS011;15138;51.012;4.692;2024-01-25T11:38:56;44.97;;;14.70;;
27746;SDS011;15138;51.012;4.692;2024-01-25T11:41:26;51.50;;;14.13;;
27746;SDS011;15138;51.012;4.692;2024-01-25T11:43:54;44.08;;;14.70;;
27746;SDS011;15138;51.012;4.692;2024-01-25T11:46:22;44.67;;;14.80;;
27746;SDS011;15138;51.012;4.692;2024-01-25T11:48:52;37.95;;;12.77;;
27746;SDS011;15138;51.012;4.692;2024-01-25T11:51:20;52.22;;;15.63;;
27746;SDS011;15138;51.012;4.692;2024-01-25T11:53:49;52.28;;;15.07;;
27746;SDS011;15138;51.012;4.692;2024-01-25T11:56:19;45.30;;;14.88;;
27746;SDS011;15138;51.012;4.692;2024-01-25T11:58:51;45.58;;;14.70;;
27746;SDS011;15138;51.012;4.692;2024-01-25T12:01:22;49.22;;;14.00;;
27746;SDS011;15138;51.012;4.692;2024-01-25T12:03:51;57.67;;;15.00;;
27746;SDS011;15138;51.012;4.692;2024-01-25T12:06:21;54.65;;;13.52;;
27746;SDS011;15138;51.012;4.692;2024-01-25T12:08:49;39.60;;;12.07;;
27746;SDS011;15138;51.012;4.692;2024-01-25T12:11:18;52.72;;;11.63;;
27746;SDS011;15138;51.012;4.692;2024-01-25T12:13:50;39.22;;;12.38;;
27746;SDS011;15138;51.012;4.692;2024-01-25T12:16:20;52.97;;;15.60;;
27746;SDS011;15138;51.012;4.692;2024-01-25T12:18:48;45.63;;;11.65;;
27746;SDS011;15138;51.012;4.692;2024-01-25T12:21:17;48.55;;;13.63;;
27746;SDS011;15138;51.012;4.692;2024-01-25T12:23:45;56.90;;;15.43;;
27746;SDS011;15138;51.012;4.692;2024-01-25T12:26:14;52.17;;;16.48;;
27746;SDS011;15138;51.012;4.692;2024-01-25T12:28:43;52.97;;;13.95;;
27746;SDS011;15138;51.012;4.692;2024-01-25T12:31:13;50.25;;;14.40;;
27746;SDS011;15138;51.012;4.692;2024-01-25T12:33:41;47.25;;;12.27;;
27746;SDS011;15138;51.012;4.692;2024-01-25T12:36:10;45.38;;;13.70;;
27746;SDS011;15138;51.012;4.692;2024-01-25T12:38:39;54.72;;;14.95;;
27746;SDS011;15138;51.012;4.692;2024-01-25T12:41:08;42.65;;;10.48;;
27746;SDS011;15138;51.012;4.692;2024-01-25T12:43:36;45.03;;;13.52;;
27746;SDS011;15138;51.012;4.692;2024-01-25T12:46:04;63.22;;;15.57;;
27746;SDS011;15138;51.012;4.692;2024-01-25T12:48:52;54.55;;;13.50;;
27746;SDS011;15138;51.012;4.692;2024-01-25T12:51:23;47.90;;;13.70;;
27746;SDS011;15138;51.012;4.692;2024-01-25T12:53:52;58.55;;;15.38;;
27746;SDS011;15138;51.012;4.692;2024-01-25T12:56:21;41.78;;;12.52;;
27746;SDS011;15138;51.012;4.692;2024-01-25T12:58:49;38.33;;;13.30;;
27746;SDS011;15138;51.012;4.692;2024-01-25T13:01:17;49.83;;;12.65;;
27746;SDS011;15138;51.012;4.692;2024-01-25T13:03:47;46.10;;;13.05;;
27746;SDS011;15138;51.012;4.692;2024-01-25T13:06:17;51.83;;;14.63;;
27746;SDS011;15138;51.012;4.692;2024-01-25T13:08:45;61.20;;;14.63;;
27746;SDS011;15138;51.012;4.692;2024-01-25T13:11:13;48.38;;;13.75;;
27746;SDS011;15138;51.012;4.692;2024-01-25T13:13:41;43.53;;;12.35;;
27746;SDS011;15138;51.012;4.692;2024-01-25T13:16:11;43.47;;;13.40;;
27746;SDS011;15138;51.012;4.692;2024-01-25T13:18:39;41.67;;;13.00;;
27746;SDS011;15138;51.012;4.692;2024-01-25T13:21:08;44.22;;;10.85;;
27746;SDS011;15138;51.012;4.692;2024-01-25T13:23:38;51.53;;;12.25;;
27746;SDS011;15138;51.012;4.692;2024-01-25T13:26:06;40.55;;;14.05;;
27746;SDS011;15138;51.012;4.692;2024-01-25T13:28:34;49.67;;;13.98;;
27746;SDS011;15138;51.012;4.692;2024-01-25T13:31:02;52.38;;;13.32;;
27746;SDS011;15138;51.012;4.692;2024-01-25T13:33:30;52.70;;;14.93;;
27746;SDS011;15138;51.012;4.692;2024-01-25T13:35:59;45.97;;;13.88;;
27746;SDS011;15138;51.012;4.692;2024-01-25T13:38:27;31.70;;;10.70;;
27746;SDS011;15138;51.012;4.692;2024-01-25T13:40:57;45.00;;;13.18;;
27746;SDS011;15138;51.012;4.692;2024-01-25T13:43:25;49.58;;;13.15;;
27746;SDS011;15138;51.012;4.692;2024-01-25T13:45:54;45.72;;;13.65;;
27746;SDS011;15138;51.012;4.692;2024-01-25T13:48:22;47.38;;;15.98;;
27746;SDS011;15138;51.012;4.692;2024-01-25T13:50:51;49.40;;;15.40;;
27746;SDS011;15138;51.012;4.692;2024-01-25T13:53:19;58.20;;;14.13;;
27746;SDS011;15138;51.012;4.692;2024-01-25T13:55:47;51.45;;;14.93;;
27746;SDS011;15138;51.012;4.692;2024-01-25T13:58:17;52.53;;;17.40;;
27746;SDS011;15138;51.012;4.692;2024-01-25T14:00:45;45.72;;;14.25;;
27746;SDS011;15138;51.012;4.692;2024-01-25T14:03:14;44.90;;;13.48;;
27746;SDS011;15138;51.012;4.692;2024-01-25T14:05:43;35.75;;;12.57;;
27746;SDS011;15138;51.012;4.692;2024-01-25T14:08:11;45.70;;;15.60;;
27746;SDS011;15138;51.012;4.692;2024-01-25T14:10:40;44.97;;;13.80;;
27746;SDS011;15138;51.012;4.692;2024-01-25T14:13:09;44.42;;;13.45;;
27746;SDS011;15138;51.012;4.692;2024-01-25T14:15:38;44.00;;;14.30;;
27746;SDS011;15138;51.012;4.692;2024-01-25T14:18:06;27.48;;;9.68;;
27746;SDS011;15138;51.012;4.692;2024-01-25T14:20:35;38.65;;;13.95;;
27746;SDS011;15138;51.012;4.692;2024-01-25T14:23:04;41.80;;;14.63;;
27746;SDS011;15138;51.012;4.692;2024-01-25T14:25:33;42.75;;;13.90;;
27746;SDS011;15138;51.012;4.692;2024-01-25T14:28:01;37.25;;;13.40;;
27746;SDS011;15138;51.012;4.692;2024-01-25T14:30:29;42.10;;;14.38;;
27746;SDS011;15138;51.012;4.692;2024-01-25T14:32:59;36.17;;;12.52;;
27746;SDS011;15138;51.012;4.692;2024-01-25T14:35:30;46.25;;;12.95;;
27746;SDS011;15138;51.012;4.692;2024-01-25T14:37:58;32.28;;;11.77;;
27746;SDS011;15138;51.012;4.692;2024-01-25T14:40:26;36.28;;;12.63;;
27746;SDS011;15138;51.012;4.692;2024-01-25T14:43:14;34.03;;;10.68;;